• Join FlightAware (Why Join?)
  • Login
  • US Flag 
10:45AM EDT


 

Airport Tracker/Info


-or-


 

Live Flight TrackerFlight Track Log ✈ ASQ5750 ✈ 02-May-2013 ✈ CYUL - KORD

Flight Track Log - Related Links

Times and Time Zones

All times are in EDT time to prevent confusion due to time zone crossing. See the ASQ5750 flight status page for this flight to view local times or setup timezone preferences in your user account.

Time Position Orientation Groundspeed Altitude Reporting Facility
EDT Latitude Longitude Course Direction KTS MPH feet Rate Location/Type
06:31PM 43.2000 -78.0333 270° West 310 357 11,400  Level Montreal Center
06:32PM 43.2000 -78.1667 270° West 360 414 12,700 1,500 Climbing Montreal Center
06:33PM 43.2000 -78.3000 270° West 380 437 14,500 -600 Climbing Montreal Center
06:35PM 43.1750 -78.5958 264° West  Level Estimated
06:42PM 43.0766 -79.6837 263° West  Level Estimated
06:43PM 43.0617 -79.8388 263° West  Level Estimated
06:44PM 43.0465 -79.9938 262° West  Level Estimated
06:45PM 43.0312 -80.1488 262° West  Level Estimated
06:46PM 43.0157 -80.3036 262° West  Level Estimated
06:47PM 42.9999 -80.4584 262° West  Level Estimated
06:48PM 42.9840 -80.6132 262° West  Level Estimated
06:49PM 42.9678 -80.7678 262° West  Level Estimated
06:50PM 42.9514 -80.9224 262° West  Level Estimated
06:51PM 42.9349 -81.0768 262° West  Level Estimated
06:52PM 42.9181 -81.2312 262° West  Level Estimated
06:53PM 42.9011 -81.3855 262° West  Level Estimated
06:53PM 45.4667 -73.7500 261° West 90 104 400  Level Montreal Center
06:54PM 42.8839 -81.5397 261° West  Level Estimated
06:54PM 45.5000 -73.7000 46° Northeast 170 196 3,300  Level Montreal Center
06:55PM 42.8665 -81.6939 261° West  Level Estimated
06:55PM 45.5667 -73.7167 350° North 250 288 5,800  Level Montreal Center
06:56PM 42.8489 -81.8479 261° West  Level Estimated
06:56PM 45.6333 -73.7667 332° Northwest 270 311 9,200  Level Montreal Center
06:57PM 42.8310 -82.0019 261° West  Level Estimated
06:57PM 45.6500 -73.8500 286° West 310 357 11,800  Level Montreal Center
06:58PM 42.8130 -82.1558 261° West  Level Estimated
06:58PM 45.6167 -74.0000 252° West 340 391 13,800  Level Montreal Center
06:59PM 45.5833 -74.1167 248° West 380 437 15,200 1,320 Climbing Montreal Center
07:00PM 45.5667 -74.3000 263° West 390 449 16,500 1,380 Climbing Montreal Center
07:01PM 45.5500 -74.4333 260° West 400 460 18,000 1,200 Climbing Montreal Center
07:02PM 45.5333 -74.6000 262° West 400 460 19,000 1,140 Climbing Montreal Center
07:03PM 45.5167 -74.7500 261° West 390 449 20,300 1,320 Climbing Montreal Center
07:04PM 45.5167 -74.9167 270° West 390 449 21,700 1,200 Climbing Montreal Center
07:05PM 45.5000 -75.0667 261° West 390 449 22,700 840 Climbing Montreal Center
07:06PM 45.4833 -75.2333 262° West 400 460 23,400 660 Climbing Montreal Center
07:07PM 45.4667 -75.4000 262° West 410 472 24,100 660 Climbing Montreal Center
07:08PM 45.4500 -75.5333 260° West 420 483 24,800 960 Climbing Montreal Center
07:09PM 45.4500 -75.7000 270° West 400 460 26,100 900 Climbing Montreal Center
07:10PM 45.4333 -75.8667 262° West 400 460 26,700 600 Climbing Montreal Center
07:11PM 45.4167 -76.0333 262° West 410 472 27,300 540 Climbing Montreal Center
07:13PM 45.3667 -76.3333 257° West 420 483 28,500 600 Climbing Toronto Center
07:14PM 45.3167 -76.5000 247° West 420 483 29,200 600 Climbing Toronto Center
07:15PM 45.3000 -76.6500 261° West 420 483 29,800 600 Climbing Toronto Center
07:16PM 45.2500 -76.8167 247° West 430 495 30,400 600 Climbing Toronto Center
07:17PM 45.2167 -76.9500 251° West 430 495 31,000 600 Climbing Toronto Center
07:18PM 45.1667 -77.1333 249° West 430 495 31,600 600 Climbing Toronto Center
07:19PM 45.1333 -77.3000 254° West 420 483 32,200 600 Climbing Toronto Center
07:20PM 45.1000 -77.4333 251° West 420 483 32,800 600 Climbing Toronto Center
07:21PM 45.0667 -77.6000 254° West 420 483 33,400 600 Climbing Toronto Center
07:22PM 45.0167 -77.7500 245° Southwest 420 483 34,000 300 Climbing Toronto Center
07:23PM 44.9833 -77.9167 254° West 420 483 34,000  Level Toronto Center
07:24PM 44.9333 -78.0833 247° West 430 495 34,000  Level Toronto Center
07:25PM 44.9000 -78.2167 251° West 440 506 34,000  Level Toronto Center
07:26PM 44.8500 -78.3833 247° West 440 506 34,000  Level Toronto Center
07:27PM 44.8333 -78.5500 262° West 440 506 34,000  Level Toronto Center
07:28PM 44.7833 -78.7167 247° West 440 506 34,000  Level Toronto Center
07:29PM 44.7333 -78.8833 247° West 440 506 34,000  Level Toronto Center
07:30PM 44.6833 -79.0167 242° Southwest 440 506 34,000  Level Toronto Center
07:31PM 44.6167 -79.1833 241° Southwest 440 506 34,000  Level Toronto Center
07:32PM 44.5667 -79.3333 245° Southwest 440 506 34,000  Level Toronto Center
07:33PM 44.5167 -79.5000 247° West 440 506 34,000  Level Toronto Center
07:34PM 44.4500 -79.6333 235° Southwest 440 506 34,000  Level Toronto Center
07:35PM 44.4000 -79.8000 247° West 440 506 34,000  Level Toronto Center
07:36PM 44.3333 -79.9333 235° Southwest 440 506 34,000  Level Toronto Center
07:37PM 44.2833 -80.1000 247° West 440 506 34,000  Level Toronto Center
07:38PM 44.2333 -80.2333 242° Southwest 440 506 34,000  Level Toronto Center
07:39PM 44.1667 -80.4000 241° Southwest 440 506 34,000  Level Toronto Center
07:40PM 44.1167 -80.5333 242° Southwest 440 506 34,000  Level Toronto Center
07:41PM 44.0500 -80.7000 241° Southwest 440 506 34,000  Level Toronto Center
07:42PM 43.9833 -80.8333 235° Southwest 440 506 34,000  Level Toronto Center
07:43PM 43.9333 -81.0000 247° West 440 506 34,000  Level Toronto Center
07:44PM 43.8667 -81.1667 241° Southwest 440 506 34,000  Level Toronto Center
07:45PM 43.8167 -81.3000 243° Southwest 430 495 34,000  Level Toronto Center
07:46PM 43.7500 -81.4333 235° Southwest 430 495 34,000  Level Toronto Center
07:47PM 43.7000 -81.6000 248° West 430 495 34,000  Level Toronto Center
07:48PM 43.6500 -81.7333 243° Southwest 430 495 34,000  Level Toronto Center
07:49PM 43.6000 -81.8667 243° Southwest 430 495 34,000  Level Toronto Center
07:50PM 43.5167 -82.0167 233° Southwest 430 495 34,000  Level Toronto Center
07:51PM 43.4667 -82.1667 245° Southwest 430 495 34,000  Level Toronto Center
07:52PM 43.4289 -82.2983 248° West 431 496 34,000  Level Cleveland Center
07:53PM 43.3728 -82.4394 241° Southwest 431 496 34,000 -180 Level Cleveland Center
07:54PM 43.3142 -82.5806 240° Southwest 431 496 33,700 -420 Descending Cleveland Center
07:55PM 43.2572 -82.7239 241° Southwest 431 496 33,200 -540 Descending Cleveland Center
07:56PM 43.2128 -82.8764 248° West 431 496 32,700 -540 Descending Cleveland Center
07:57PM 43.1681 -83.0256 248° West 431 496 32,200 -360 Descending Cleveland Center
07:58PM 43.1250 -83.1831 250° West 431 496 32,000 -120 Descending Cleveland Center
07:59PM 43.0839 -83.3378 250° West 431 496 32,000 -300 Level Cleveland Center
08:00PM 43.0383 -83.4919 248° West 437 503 31,400 -660 Descending Cleveland Center
08:01PM 42.9947 -83.6461 249° West 437 503 30,700 -720 Descending Cleveland Center
08:02PM 42.9614 -83.8033 254° West 437 503 30,000 -360 Descending Cleveland Center
08:03PM 42.9442 -83.9642 262° West 437 503 30,000  Level Cleveland Center
08:05PM 42.9131 -84.3031 263° West 445 512 30,000  Level Chicago Center
08:06PM 42.8958 -84.4692 262° West 444 511 30,000  Level Chicago Center
08:07PM 42.8789 -84.6344 262° West 442 509 30,000  Level Chicago Center
08:08PM 42.8628 -84.8000 262° West 442 509 30,000  Level Chicago Center
08:09PM 42.8450 -84.9631 262° West 438 504 30,000  Level Chicago Center
08:10PM 42.8278 -85.1264 262° West 437 503 30,000  Level Chicago Center
08:11PM 42.8058 -85.3217 261° West 435 501 30,000 -240 Level Chicago Center
08:12PM 42.7881 -85.4850 262° West 436 502 29,600 -1,020 Descending Chicago Center
08:13PM 42.7589 -85.6528 257° West 447 514 27,900 -1,920 Descending Chicago Center
08:14PM 42.7275 -85.8211 256° West 454 522 25,700 -2,100 Descending Chicago Center
08:15PM 42.6983 -85.9864 257° West 448 516 23,600 -2,040 Descending Chicago Center
08:16PM 42.6694 -86.1486 256° West 441 507 21,500 -1,800 Descending Chicago Center
08:17PM 42.6394 -86.3081 256° West 436 502 20,000 -780 Descending Chicago Center
08:18PM 42.6097 -86.4633 255° West 427 491 20,000  Level Chicago Center
08:19PM 42.5744 -86.6508 256° West 427 491 20,000 -1,140 Level Chicago Center
08:20PM 42.5397 -86.8092 253° West 427 491 17,700 -2,160 Descending Chicago Center
08:21PM 42.5017 -86.9450 249° West 406 467 15,500 -2,280 Descending Chicago Center
08:22PM 42.4639 -87.0767 249° West 382 440 13,100 -2,040 Descending Chicago Center
08:23PM 42.4292 -87.2028 250° West 364 419 11,300 -1,500 Descending Chicago Center
08:24PM 42.3947 -87.3244 249° West 353 406 10,000 -660 Descending Chicago Center
08:25PM 42.3575 -87.4689 251° West 340 391 10,000  Level Chicago Center
08:26PM 42.3106 -87.5558 234° Southwest 300 345 10,000 -540 Level Chicago Center
08:27PM 42.2531 -87.6242 221° Southwest 279 321 9,000 -1,020 Descending Chicago Center
08:28PM 42.1994 -87.6822 219° Southwest 260 299 7,900 -1,020 Descending Chicago Center
08:29PM 42.1519 -87.7308 217° Southwest 222 255 7,000 -600 Descending Chicago Center
08:30PM 42.1167 -87.7667 217° Southwest 219 252 7,000  Level Chicago TRACON
08:31PM 42.0833 -87.8333 236° Southwest 207 238 7,000  Level Chicago TRACON
08:32PM 42.0833 -87.9000 270° West 204 235 7,000  Level Chicago TRACON
08:33PM 42.0667 -87.9833 255° West 203 234 7,000  Level Chicago TRACON
08:34PM 42.0667 -88.0500 270° West 207 238 7,000  Level Chicago TRACON
08:35PM 42.0500 -88.1333 255° West 205 236 7,000  Level Chicago TRACON
08:36PM 42.0500 -88.2000 270° West 213 245 7,000 -180 Level Chicago TRACON
08:37PM 42.0539 -88.2628 275° West 209 241 6,700 -540 Descending Chicago Center
08:38PM 42.0531 -88.3372 269° West 206 237 6,000 -360 Descending Chicago Center
08:39PM 42.0131 -88.3561 199° South 178 205 6,000  Level Chicago Center
08:40PM 41.9728 -88.3400 163° South 172 198 6,000 -300 Level Chicago Center
08:41PM 41.9678 -88.2633 95° East 174 200 5,400 -660 Descending Chicago Center
08:42PM 41.9669 -88.1978 91° East 177 204 4,700 -840 Descending Chicago Center
08:43PM 41.9683 -88.1342 88° East 174 200 3,700 -960 Descending Chicago Center
08:44PM 41.9667 -88.0667 92° East 165 190 2,800 -840 Descending Chicago TRACON
08:45PM 41.9667 -88.0000 90° East 139 160 2,000 -780 Descending Chicago TRACON
08:46PM 41.9667 -87.9667 90° East 125 144 1,300 -780 Descending Chicago TRACON